createdAt,value
2022-08-07T00:01:44.256Z,14.23
2022-08-07T00:04:46.188Z,14.37
2022-08-07T00:07:40.088Z,15.52
2022-08-07T00:10:31.561Z,16.43
2022-08-07T00:13:25.671Z,16.99
2022-08-07T00:16:17.651Z,17.39
2022-08-07T00:19:26.203Z,17.28
2022-08-07T00:22:35.567Z,16.17
2022-08-07T00:25:25.156Z,15.37
2022-08-07T00:28:15.481Z,14.82
2022-08-07T00:31:12.695Z,14.39
2022-08-07T00:34:04.211Z,14.42
2022-08-07T00:36:58.024Z,15.57
2022-08-07T00:39:54.337Z,16.33
2022-08-07T00:42:42.680Z,16.04
2022-08-07T00:45:31.158Z,15.19
2022-08-07T00:48:19.727Z,14.57
2022-08-07T00:51:19.401Z,14.54
2022-08-07T00:54:07.976Z,15.62
2022-08-07T00:57:00.388Z,16.36
2022-08-07T00:59:48.938Z,16.71
2022-08-07T01:02:37.210Z,16.06
2022-08-07T01:05:29.064Z,15.21
2022-08-07T01:08:17.772Z,14.60
2022-08-07T01:11:22.920Z,14.51
2022-08-07T01:14:21.273Z,15.63
2022-08-07T01:17:16.502Z,16.47
2022-08-07T01:20:17.116Z,16.93
2022-08-07T01:23:12.758Z,17.21
2022-08-07T01:26:02.745Z,16.70
2022-08-07T01:28:53.893Z,15.69
2022-08-07T01:31:51.215Z,14.95
2022-08-07T01:34:39.465Z,14.46
2022-08-07T01:37:33.901Z,14.44
2022-08-07T01:40:24.998Z,15.61
2022-08-07T01:43:17.818Z,16.56
2022-08-07T01:46:08.397Z,17.17
2022-08-07T01:49:03.219Z,17.49
2022-08-07T01:52:02.503Z,17.43
2022-08-07T01:54:56.601Z,16.31
2022-08-07T01:58:06.944Z,15.44
2022-08-07T02:01:09.725Z,14.79
2022-08-07T02:04:36.197Z,14.76
2022-08-07T02:07:44.695Z,15.92
2022-08-07T02:10:43.180Z,16.63
2022-08-07T02:13:57.930Z,17.01
2022-08-07T02:16:51.654Z,17.39
2022-08-07T02:20:06.593Z,17.44
2022-08-07T02:22:59.877Z,16.30
2022-08-07T02:26:30.735Z,15.40
2022-08-07T02:28:58.454Z,14.72
2022-08-07T02:31:49.752Z,14.59
2022-08-07T02:34:48.893Z,15.61
2022-08-07T02:37:44.097Z,16.54
2022-08-07T02:40:35.276Z,17.07
2022-08-07T02:43:25.116Z,17.11
2022-08-07T02:46:17.584Z,16.18
2022-08-07T02:49:07.544Z,15.34
2022-08-07T02:51:59.272Z,14.77
2022-08-07T02:54:49.580Z,14.73
2022-08-07T02:57:41.497Z,15.76
2022-08-07T03:00:39.084Z,16.55
2022-08-07T03:03:42.271Z,17.02
2022-08-07T03:06:40.056Z,17.43
2022-08-07T03:09:42.343Z,17.73
2022-08-07T03:12:34.770Z,17.44
2022-08-07T03:15:47.737Z,16.46
2022-08-07T03:18:36.455Z,15.59
2022-08-07T03:21:27.749Z,15.51
2022-08-07T03:24:18.961Z,16.52
2022-08-07T03:27:30.108Z,17.22
2022-08-07T03:30:24.307Z,17.66
2022-08-07T03:33:14.723Z,17.16
2022-08-07T03:36:03.384Z,16.26
2022-08-07T03:39:05.848Z,15.58
2022-08-07T03:41:58.514Z,15.54
2022-08-07T03:44:53.674Z,16.61
2022-08-07T03:47:51.116Z,17.53
2022-08-07T03:50:43.252Z,18.10
2022-08-07T03:54:32.814Z,18.16
2022-08-07T03:57:03.605Z,17.13
2022-08-07T04:00:01.660Z,16.36
2022-08-07T04:02:52.932Z,15.87
2022-08-07T04:05:50.850Z,15.90
2022-08-07T04:08:42.424Z,16.98
2022-08-07T04:12:23.991Z,17.82
2022-08-07T04:14:47.691Z,18.43
2022-08-07T04:18:30.964Z,18.60
2022-08-07T04:20:54.572Z,17.76
2022-08-07T04:24:03.612Z,17.12
2022-08-07T04:26:52.380Z,16.64
2022-08-07T04:30:01.113Z,17.07
2022-08-07T04:33:15.712Z,18.25
2022-08-07T04:36:09.093Z,18.92
2022-08-07T04:38:57.452Z,19.04
2022-08-07T04:41:50.894Z,18.24
2022-08-07T04:44:54.799Z,17.54
2022-08-07T04:48:05.999Z,16.99
2022-08-07T04:51:49.617Z,16.59
2022-08-07T04:58:09.901Z,16.86
2022-08-07T05:02:32.712Z,17.58
2022-08-07T05:05:53.605Z,16.69
2022-08-07T05:09:00.777Z,16.69
2022-08-07T05:11:57.536Z,17.77
2022-08-07T05:14:59.106Z,18.55
2022-08-07T05:18:06.226Z,18.72
2022-08-07T05:21:01.410Z,18.06
2022-08-07T05:24:06.834Z,18.07
2022-08-07T05:26:59.484Z,19.68
2022-08-07T05:29:52.074Z,22.41
2022-08-07T05:32:41.705Z,23.95
2022-08-07T05:35:41.754Z,25.26
2022-08-07T05:39:00.201Z,26.75
2022-08-07T05:42:01.664Z,28.32
2022-08-07T05:45:04.466Z,29.83
2022-08-07T05:48:05.901Z,31.21
2022-08-07T05:51:04.624Z,32.24
2022-08-07T05:54:12.816Z,33.10
2022-08-07T05:57:03.534Z,33.88
2022-08-07T05:59:57.615Z,34.54
2022-08-07T06:02:51.998Z,35.13
2022-08-07T06:05:48.857Z,35.29
2022-08-07T06:08:42.636Z,35.50
2022-08-07T06:11:34.782Z,36.01
2022-08-07T06:14:28.703Z,36.47
2022-08-07T06:17:22.277Z,36.99
2022-08-07T06:20:12.761Z,37.64
2022-08-07T06:23:46.465Z,37.92
2022-08-07T06:26:27.459Z,38.11
2022-08-07T06:29:17.600Z,38.17
2022-08-07T06:32:06.287Z,38.12
2022-08-07T06:34:55.353Z,38.27
2022-08-07T06:37:44.689Z,38.25
2022-08-07T06:40:50.174Z,37.55
2022-08-07T06:43:46.113Z,35.93
2022-08-07T06:46:40.841Z,35.11
2022-08-07T06:49:33.382Z,35.31
2022-08-07T06:52:45.194Z,35.85
2022-08-07T06:55:47.542Z,36.37
2022-08-07T06:58:37.609Z,36.93
2022-08-07T07:01:33.325Z,37.41
2022-08-07T07:04:34.033Z,37.59
2022-08-07T07:07:59.108Z,37.83
2022-08-07T07:10:34.741Z,38.40
2022-08-07T07:13:56.483Z,38.90
2022-08-07T07:16:51.023Z,38.46
2022-08-07T07:19:56.130Z,37.91
2022-08-07T07:24:08.377Z,38.09
2022-08-07T07:26:34.471Z,38.14
2022-08-07T07:29:55.756Z,37.64
2022-08-07T07:32:24.669Z,36.50
2022-08-07T07:35:14.463Z,36.79
2022-08-07T07:38:05.744Z,37.29
2022-08-07T07:41:02.851Z,37.78
2022-08-07T07:44:14.204Z,38.34
2022-08-07T07:47:14.149Z,37.70
2022-08-07T07:50:35.716Z,36.50
2022-08-07T07:53:23.155Z,34.93
2022-08-07T07:56:15.847Z,35.18
2022-08-07T07:59:06.549Z,36.13
2022-08-07T08:02:03.942Z,36.69
2022-08-07T08:04:56.424Z,35.64
2022-08-07T08:08:00.749Z,34.33
2022-08-07T08:10:51.598Z,33.57
2022-08-07T08:13:54.592Z,33.62
2022-08-07T08:16:50.259Z,33.33
2022-08-07T08:20:17.570Z,32.04
2022-08-07T08:23:10.381Z,31.02
2022-08-07T08:26:21.822Z,31.74
2022-08-07T08:29:17.204Z,33.07
2022-08-07T08:32:18.994Z,34.18
2022-08-07T08:35:42.940Z,35.23
2022-08-07T08:38:44.531Z,36.07
2022-08-07T08:42:01.353Z,35.51
2022-08-07T08:45:01.085Z,33.73
2022-08-07T08:48:18.798Z,31.87
2022-08-07T08:51:49.890Z,29.98
2022-08-07T08:54:48.391Z,28.36
2022-08-07T08:57:45.753Z,27.24
2022-08-07T09:00:48.349Z,26.55
2022-08-07T09:04:08.103Z,26.01
2022-08-07T09:07:25.384Z,26.18
2022-08-07T09:10:34.186Z,27.67
2022-08-07T09:14:01.784Z,28.78
2022-08-07T09:17:18.645Z,29.84
2022-08-07T09:20:35.298Z,30.56
2022-08-07T09:24:33.686Z,31.28
2022-08-07T09:27:30.317Z,32.69
2022-08-07T09:30:20.602Z,33.70
2022-08-07T09:33:57.013Z,33.78
2022-08-07T09:37:01.407Z,33.81
2022-08-07T09:40:06.237Z,34.53
2022-08-07T09:44:06.000Z,35.40
2022-08-07T09:47:49.711Z,35.81
2022-08-07T09:51:00.872Z,36.54
2022-08-07T09:53:57.050Z,35.80
2022-08-07T09:57:46.622Z,34.33
2022-08-07T10:00:52.108Z,32.21
2022-08-07T10:04:17.059Z,30.77
2022-08-07T10:08:09.704Z,29.25
2022-08-07T10:12:03.154Z,27.84
2022-08-07T10:14:54.977Z,26.57
2022-08-07T10:18:26.432Z,25.57
2022-08-07T10:22:16.101Z,24.70
2022-08-07T10:25:42.567Z,24.06
2022-08-07T10:28:41.732Z,23.68
2022-08-07T10:32:04.587Z,23.47
2022-08-07T10:35:55.090Z,23.38
2022-08-07T10:39:05.470Z,23.35
2022-08-07T10:42:38.987Z,23.34
2022-08-07T10:45:58.079Z,23.67
2022-08-07T10:49:15.947Z,24.50
2022-08-07T10:52:22.109Z,26.52
2022-08-07T10:55:53.533Z,28.56
2022-08-07T10:59:21.258Z,30.35
2022-08-07T11:03:03.939Z,31.24
2022-08-07T11:06:15.756Z,31.87
2022-08-07T11:10:07.979Z,32.17
2022-08-07T11:14:41.943Z,32.00
2022-08-07T11:16:48.000Z,31.87
2022-08-07T11:19:55.200Z,31.28
2022-08-07T11:23:36.506Z,30.30
2022-08-07T11:26:43.435Z,29.14
2022-08-07T11:29:53.875Z,28.61
2022-08-07T11:33:19.239Z,28.39
2022-08-07T11:37:03.007Z,27.98
2022-08-07T11:40:10.138Z,27.81
2022-08-07T11:43:41.711Z,27.72
2022-08-07T11:47:02.840Z,27.62
2022-08-07T11:50:44.751Z,27.54
2022-08-07T11:54:54.434Z,27.39
2022-08-07T11:58:16.085Z,27.28
2022-08-07T12:01:06.781Z,27.13
2022-08-07T12:04:37.915Z,27.06
2022-08-07T12:07:39.231Z,27.08
2022-08-07T12:10:49.263Z,27.16
2022-08-07T12:14:08.682Z,27.15
2022-08-07T12:17:07.158Z,27.02
2022-08-07T12:20:12.917Z,26.91
2022-08-07T12:24:07.615Z,26.91
2022-08-07T12:27:03.481Z,26.86
2022-08-07T12:30:07.471Z,26.74
2022-08-07T12:33:18.645Z,26.54
2022-08-07T12:36:11.024Z,26.31
2022-08-07T12:39:00.132Z,26.19
2022-08-07T12:41:51.840Z,25.92
2022-08-07T12:44:47.178Z,25.58
2022-08-07T12:48:28.500Z,25.30
2022-08-07T12:51:33.207Z,24.87
2022-08-07T12:55:16.371Z,24.47
2022-08-07T12:58:12.854Z,24.06
2022-08-07T13:01:06.486Z,23.72
2022-08-07T13:04:57.696Z,23.51
2022-08-07T13:08:32.762Z,23.36
2022-08-07T13:12:03.583Z,23.30
2022-08-07T13:15:31.619Z,23.25
2022-08-07T13:18:54.804Z,23.28
2022-08-07T13:22:31.649Z,23.34
2022-08-07T13:25:45.961Z,23.48
2022-08-07T13:28:59.046Z,23.66
2022-08-07T13:32:31.052Z,23.85
2022-08-07T13:36:00.626Z,24.05
2022-08-07T13:39:48.954Z,24.25
2022-08-07T13:42:37.582Z,24.32
2022-08-07T13:46:12.412Z,24.26
2022-08-07T13:48:51.979Z,24.22
2022-08-07T13:52:16.382Z,24.24
2022-08-07T13:55:00.617Z,24.28
2022-08-07T13:58:02.031Z,24.19
2022-08-07T14:00:54.775Z,24.07
2022-08-07T14:04:07.114Z,23.99
2022-08-07T14:06:55.403Z,23.95
2022-08-07T14:10:02.376Z,23.87
2022-08-07T14:13:01.471Z,23.69
2022-08-07T14:16:00.492Z,23.44
2022-08-07T14:18:57.311Z,23.25
2022-08-07T14:22:00.967Z,23.12
2022-08-07T14:24:53.611Z,22.94
2022-08-07T14:28:12.356Z,22.78
2022-08-07T14:30:58.440Z,22.60
2022-08-07T14:33:49.815Z,22.48
2022-08-07T14:36:39.285Z,22.35
2022-08-07T14:40:15.559Z,22.21
2022-08-07T14:45:51.621Z,21.93
2022-08-07T14:48:48.398Z,21.73
2022-08-07T14:54:49.719Z,21.36
2022-08-07T14:57:54.678Z,21.21
2022-08-07T15:00:51.548Z,21.08
2022-08-07T15:03:52.576Z,20.99
2022-08-07T15:06:48.970Z,20.92
2022-08-07T15:13:06.400Z,20.85
2022-08-07T15:20:31.500Z,20.55
2022-08-07T15:26:22.555Z,20.18
2022-08-07T15:30:06.467Z,20.04
2022-08-07T15:32:39.938Z,19.93
2022-08-07T15:38:58.928Z,19.81
2022-08-07T15:42:46.616Z,19.79
2022-08-07T15:45:55.467Z,19.79
2022-08-07T15:49:03.682Z,19.81
2022-08-07T15:54:48.439Z,19.80
2022-08-07T15:57:40.000Z,19.77
2022-08-07T16:00:44.315Z,19.73
2022-08-07T16:03:46.980Z,19.71
2022-08-07T16:07:04.752Z,19.67
2022-08-07T16:10:14.944Z,19.62
2022-08-07T16:13:59.301Z,19.55
2022-08-07T16:18:03.933Z,19.51
2022-08-07T16:22:03.301Z,19.48
2022-08-07T16:25:55.528Z,19.49
2022-08-07T16:30:07.090Z,19.48
2022-08-07T16:32:34.476Z,19.47
2022-08-07T16:35:56.902Z,19.48
2022-08-07T16:39:33.735Z,19.42
2022-08-07T16:42:58.117Z,19.32
2022-08-07T16:47:04.448Z,19.23
2022-08-07T16:50:28.441Z,19.15
2022-08-07T16:54:08.882Z,19.07
2022-08-07T16:58:01.752Z,18.93
2022-08-07T17:01:08.062Z,18.83
2022-08-07T17:04:24.689Z,18.81
2022-08-07T17:07:55.230Z,18.76
2022-08-07T17:10:54.512Z,18.68
2022-08-07T17:14:19.386Z,18.64
2022-08-07T17:17:44.060Z,18.61
2022-08-07T17:20:41.954Z,18.55
2022-08-07T17:23:54.125Z,18.50
2022-08-07T17:26:59.658Z,18.45
2022-08-07T17:30:16.192Z,18.41
2022-08-07T17:34:09.249Z,18.42
2022-08-07T17:36:57.952Z,18.44
2022-08-07T17:40:30.611Z,18.43
2022-08-07T17:44:01.431Z,18.38
2022-08-07T17:46:55.101Z,18.31
2022-08-07T17:49:56.952Z,18.30
2022-08-07T17:54:01.552Z,18.30
2022-08-07T17:56:36.528Z,18.24
2022-08-07T18:00:06.002Z,18.20
2022-08-07T18:03:18.478Z,18.24
2022-08-07T18:06:16.677Z,18.29
2022-08-07T18:10:04.410Z,18.34
2022-08-07T18:12:59.806Z,18.39
2022-08-07T18:16:09.320Z,18.40
2022-08-07T18:21:07.526Z,18.36
2022-08-07T18:22:47.679Z,18.28
2022-08-07T18:25:41.895Z,18.15
2022-08-07T18:30:06.173Z,18.05
2022-08-07T18:32:55.637Z,17.91
2022-08-07T18:36:54.410Z,17.78
2022-08-07T18:40:17.933Z,17.65
2022-08-07T18:44:00.681Z,17.51
2022-08-07T18:47:25.494Z,17.39
2022-08-07T18:50:49.568Z,17.29
2022-08-07T18:54:30.967Z,17.23
2022-08-07T18:57:33.489Z,17.14
2022-08-07T19:02:18.880Z,17.07
2022-08-07T19:04:57.855Z,16.98
2022-08-07T19:08:28.046Z,16.92
2022-08-07T19:11:36.639Z,16.82
2022-08-07T19:16:05.826Z,16.73
2022-08-07T19:18:45.080Z,16.61
2022-08-07T19:22:04.866Z,16.50
2022-08-07T19:24:54.118Z,16.39
2022-08-07T19:28:58.737Z,16.29
2022-08-07T19:31:37.312Z,16.19
2022-08-07T19:34:11.871Z,16.63
2022-08-07T19:37:10.035Z,17.87
2022-08-07T19:40:09.770Z,18.66
2022-08-07T19:42:57.559Z,18.17
2022-08-07T19:46:07.246Z,17.53
2022-08-07T19:49:17.792Z,17.01
2022-08-07T19:52:32.168Z,16.61
2022-08-07T19:55:24.188Z,16.36
2022-08-07T19:58:15.872Z,16.15
2022-08-07T20:01:04.071Z,16.35
2022-08-07T20:04:04.450Z,17.59
2022-08-07T20:06:56.645Z,18.51
2022-08-07T20:10:35.427Z,18.74
2022-08-07T20:13:05.876Z,17.82
2022-08-07T20:15:57.846Z,17.14
2022-08-07T20:18:49.165Z,16.68
2022-08-07T20:21:47.517Z,16.31
2022-08-07T20:24:38.681Z,16.01
2022-08-07T20:27:47.662Z,15.76
2022-08-07T20:30:46.865Z,15.97
2022-08-07T20:33:38.280Z,17.12
2022-08-07T20:36:31.495Z,17.66
2022-08-07T20:40:04.021Z,16.98
2022-08-07T20:42:56.227Z,16.24
2022-08-07T20:46:25.920Z,15.79
2022-08-07T20:49:59.006Z,15.94
2022-08-07T20:52:29.910Z,17.14
2022-08-07T20:55:23.852Z,17.27
2022-08-07T20:58:19.491Z,16.54
2022-08-07T21:01:19.416Z,15.92
2022-08-07T21:04:21.823Z,15.51
2022-08-07T21:07:14.579Z,15.59
2022-08-07T21:10:11.625Z,16.72
2022-08-07T21:13:05.212Z,17.23
2022-08-07T21:16:00.967Z,16.52
2022-08-07T21:18:51.275Z,15.83
2022-08-07T21:21:49.298Z,15.36
2022-08-07T21:25:29.150Z,15.46
2022-08-07T21:28:48.262Z,16.76
2022-08-07T21:32:47.763Z,17.01
2022-08-07T21:36:06.088Z,16.04
2022-08-07T21:38:55.527Z,15.36
2022-08-07T21:42:42.543Z,15.41
2022-08-07T21:46:09.225Z,16.60
2022-08-07T21:49:17.992Z,16.76
2022-08-07T21:52:44.421Z,15.88
2022-08-07T21:55:56.143Z,15.22
2022-08-07T21:59:04.626Z,15.67
2022-08-07T22:02:10.420Z,16.75
2022-08-07T22:05:04.034Z,17.41
2022-08-07T22:07:58.685Z,16.88
2022-08-07T22:10:58.258Z,15.99
2022-08-07T22:13:54.890Z,15.37
2022-08-07T22:16:56.548Z,15.37
2022-08-07T22:20:22.959Z,16.60
2022-08-07T22:23:26.657Z,17.35
2022-08-07T22:26:30.555Z,16.87
2022-08-07T22:29:54.825Z,15.99
2022-08-07T22:33:15.335Z,15.90
2022-08-07T22:36:34.362Z,17.08
2022-08-07T22:39:52.473Z,17.73
2022-08-07T22:42:44.932Z,18.10
2022-08-07T22:46:40.932Z,17.84
2022-08-07T22:49:54.178Z,16.75
2022-08-07T22:54:07.643Z,15.96
2022-08-07T22:57:04.000Z,16.22
2022-08-07T23:00:14.907Z,17.35
2022-08-07T23:03:29.041Z,18.02
2022-08-07T23:06:57.975Z,17.42
2022-08-07T23:10:36.413Z,16.55
2022-08-07T23:14:16.491Z,16.58
2022-08-07T23:17:29.779Z,17.69
2022-08-07T23:21:02.886Z,18.34
2022-08-07T23:24:45.431Z,18.16
2022-08-07T23:28:28.477Z,17.01
2022-08-07T23:32:49.621Z,16.31
2022-08-07T23:35:16.783Z,17.17
2022-08-07T23:38:45.285Z,18.05
2022-08-07T23:42:05.107Z,18.08
2022-08-07T23:45:33.488Z,17.10
2022-08-07T23:48:50.600Z,16.65
2022-08-07T23:53:00.113Z,17.58
2022-08-07T23:55:05.547Z,18.22
2022-08-07T23:58:18.783Z,17.60
